Amberson, PA

11:28 AM EDT on July 27, 2016 (GMT -0400)
Upper Mifflin Township | | Change Station

Elev 659 ft 40.21 °N, 77.49 °W | Updated 4 seconds ago

Partly Cloudy
Partly Cloudy
90.9 °F
Feels Like 102 °F
N
6.0
Wind Variable Wind from SE
Gusts 6.9 mph

Today
High -- | Low -- °F
--% Chance of Precip.
Yesterday
High -- | Low -- °F
Precip. -- in
Pressure 30.01 in
Visibility 10.0 miles
Clouds Few 12000 ft
Heat Index 102 °F
Dew Point 75 °F
Humidity 60%
Rainfall 0.00 in
Snow Depth Not available.
6:04 AM 8:29 PM
Last Quarter, 42% visible
METAR KHGR 271453Z VRB03KT 10SM FEW120 29/17 A3000 RMK AO2 SLP160 T02890172 50002
Pressure 30.01 in
Visibility 10.0 miles
Clouds Few 12000 ft
Heat Index 102 °F
Dew Point 75 °F
Humidity 60%
Rainfall 0.00 in
Snow Depth Not available.
6:04 AM 8:29 PM
Last Quarter, 42% visible
METAR KHGR 271453Z VRB03KT 10SM FEW120 29/17 A3000 RMK AO2 SLP160 T02890172 50002

10-Day Weather Forecast

Almanac

Astronomy

Jul. 27, 2016 Rise Set
Actual Time
Civil Twilight
Nautical Twilight
Astronomical Twilight
Moon
Length of Visible Light
Length of Day
Tomorrow will be .
, % of the Moon is Illuminated

Today's Extremes

State Highs State Lows

Community

WunderPhotos

Upload Photos

1,927,859 photos uploaded!

WunderBlog® & News

Nearby

Air Quality

  Air Quality AQ Index Pollutant
Not available.

Snow Depth

Station Depth Elevation

Earthquake Activity

City Distance Mag. Time & Date
Minimum magnitude displayed is 2.5.

Coastal Water Temperatures

Place Temperature

Stations

Nearby Weather Stations

Station Location Temp. Windchill Dew Point Humidity Wind Precip. Elev Updated Type
                   

Watches & Warnings

There are currently no watches in effect.